KRFI

Rusk County Airport

Henderson, Texas, USA
METAR KRFI 110155Z AUTO 00000KT 10SM CLR 02/01 A3039 RMK AO2 T00180005
Observed Flight Rules
Dec-11 @ 01:55 UTC (29 minutes ago) Visual Flight Rules
Visibility Clouds
10 miles
  • Clear skies
Temperatures Readings
Current 2°C / 36°F
Dewpoint 1°C / 34°F
Humidity 93%
Altimeter 30.39" Hg
Pressure 1029 hPa
Elevation 135
METAR KRFI 110155Z AUTO 00000KT 10SM CLR 02/01 A3039 RMK AO2 T00180005
Observed Flight Rules
Dec-11 @ 01:55 UTC
(29 minutes ago)
VFR
Clouds
  • Clear skies
Temperature Dewpoint
2°C / 36°F 1°C / 34°F
Humidity Altimeter Pressure
93% 30.39" Hg 1029 hPa